Time;durP1;ratioP1;P1;durP2;ratioP2;P2;SDS_P1;SDS_P2;PMS_P1;PMS_P2;Temp;Humidity;BMP_temperature;BMP_pressure;BME280_temperature;BME280_humidity;BME280_pressure;Samples;Min_cycle;Max_cycle;Signal;HPM_P1;HPM_P2
2022/09/10 00:01:26;;;;;;;5.95;1.80;;;19.40;99.90;;;;;;5000324;28;20033;-76
2022/09/10 00:03:53;;;;;;;4.45;1.85;;;19.50;99.90;;;;;;5003391;28;20029;-74
2022/09/10 00:06:20;;;;;;;6.88;1.95;;;19.50;99.90;;;;;;5003381;28;20089;-76
2022/09/10 00:08:48;;;;;;;3.78;1.50;;;19.50;99.90;;;;;;5020541;28;20075;-74
2022/09/10 00:11:14;;;;;;;3.40;1.70;;;19.60;99.90;;;;;;5017939;28;20029;-75
2022/09/10 00:13:40;;;;;;;2.45;1.85;;;19.60;99.90;;;;;;5016537;28;20033;-77
2022/09/10 00:16:09;;;;;;;2.88;1.77;;;19.60;99.90;;;;;;5003868;28;20042;-77
2022/09/10 00:18:36;;;;;;;3.53;1.70;;;19.60;99.90;;;;;;5018517;28;20026;-76
2022/09/10 00:21:06;;;;;;;2.00;1.15;;;19.50;99.90;;;;;;5015987;28;20029;-76
2022/09/10 00:23:32;;;;;;;5.18;1.65;;;19.60;99.90;;;;;;5015462;28;20380;-76
2022/09/10 00:25:58;;;;;;;3.25;2.00;;;19.60;99.90;;;;;;5002665;28;20045;-75
2022/09/10 00:28:26;;;;;;;4.25;1.73;;;19.50;99.90;;;;;;5013669;28;20029;-74
2022/09/10 00:30:53;;;;;;;3.80;2.00;;;19.50;99.90;;;;;;5006702;28;20030;-76
2022/09/10 00:33:21;;;;;;;2.88;2.08;;;19.50;99.90;;;;;;5015103;28;20033;-75
2022/09/10 00:35:47;;;;;;;4.28;2.08;;;19.60;99.90;;;;;;5016596;28;20032;-74
2022/09/10 00:38:17;;;;;;;4.95;1.90;;;19.60;99.90;;;;;;5022001;28;20516;-74
2022/09/10 00:40:43;;;;;;;4.25;1.63;;;19.60;99.90;;;;;;4997559;28;20833;-75
2022/09/10 00:43:19;;;;;;;1.73;1.63;;;19.50;99.90;;;;;;4998471;28;20119;-74
2022/09/10 00:45:51;;;;;;;4.50;1.75;;;19.60;99.90;;;;;;5014130;28;20021;-76
2022/09/10 00:48:23;;;;;;;5.20;2.00;;;19.60;99.90;;;;;;5015494;28;20131;-73
2022/09/10 00:50:50;;;;;;;1.65;1.55;;;19.70;99.90;;;;;;5000359;28;20432;-77
2022/09/10 00:53:21;;;;;;;4.68;2.05;;;19.70;99.90;;;;;;5014186;28;20073;-75
2022/09/10 00:55:52;;;;;;;1.55;1.42;;;19.70;99.90;;;;;;5002132;28;20021;-74
2022/09/10 00:58:19;;;;;;;2.58;1.63;;;19.70;99.90;;;;;;5018182;28;20153;-75
2022/09/10 01:00:45;;;;;;;3.35;2.42;;;19.70;99.90;;;;;;5015600;28;20329;-75
2022/09/10 01:03:14;;;;;;;2.72;1.92;;;19.70;99.90;;;;;;5017621;28;20025;-75
2022/09/10 01:05:44;;;;;;;4.32;1.70;;;19.80;99.90;;;;;;4999542;28;20670;-75
2022/09/10 01:08:15;;;;;;;1.67;1.58;;;19.80;99.90;;;;;;5017736;28;20120;-76
2022/09/10 01:11:30;;;;;;;4.68;1.55;;;19.90;99.90;;;;;;4995120;28;20026;-75
2022/09/10 01:14:18;;;;;;;5.78;1.70;;;20.00;99.90;;;;;;5016986;28;20033;-75
2022/09/10 01:17:25;;;;;;;4.72;1.65;;;20.10;99.90;;;;;;4998713;28;20079;-74
2022/09/10 01:20:05;;;;;;;2.65;1.25;;;20.10;99.90;;;;;;5015736;28;20155;-75
2022/09/10 01:22:52;;;;;;;2.65;1.75;;;20.10;99.90;;;;;;4999900;28;20028;-74
2022/09/10 01:25:36;;;;;;;5.00;1.67;;;20.00;99.90;;;;;;5016801;28;20561;-74
2022/09/10 01:28:09;;;;;;;5.57;2.00;;;20.00;99.90;;;;;;5016008;28;20033;-74
2022/09/10 01:30:42;;;;;;;3.28;1.50;;;20.00;99.90;;;;;;4997997;28;20059;-75
2022/09/10 01:33:22;;;;;;;4.25;0.80;;;20.00;99.90;;;;;;4996754;28;20145;-75
2022/09/10 01:36:05;;;;;;;1.40;1.25;;;19.90;99.90;;;;;;5016580;28;20032;-75
2022/09/10 01:38:34;;;;;;;1.42;1.17;;;19.90;99.90;;;;;;4997849;28;20034;-76
2022/09/10 01:41:00;;;;;;;5.75;1.30;;;19.90;99.90;;;;;;5011788;28;20029;-73
2022/09/10 01:43:26;;;;;;;1.92;1.58;;;19.90;99.90;;;;;;5016449;28;20098;-75
2022/09/10 01:46:18;;;;;;;1.30;1.20;;;20.00;99.90;;;;;;5001326;28;20399;-76
2022/09/10 01:48:55;;;;;;;1.33;1.23;;;20.00;99.90;;;;;;5013621;28;20327;-75
2022/09/10 01:51:36;;;;;;;2.03;1.50;;;19.90;99.90;;;;;;5022616;28;20029;-75
2022/09/10 01:54:25;;;;;;;1.98;1.15;;;20.00;99.90;;;;;;5017746;28;20124;-73
2022/09/10 01:57:02;;;;;;;1.63;1.52;;;20.10;99.90;;;;;;4999494;28;20040;-74
2022/09/10 01:59:53;;;;;;;2.30;1.50;;;20.10;99.90;;;;;;5000300;28;20021;-75
2022/09/10 02:02:29;;;;;;;1.65;1.48;;;20.00;99.90;;;;;;5001417;28;20037;-75
2022/09/10 02:04:55;;;;;;;3.53;1.02;;;20.00;99.90;;;;;;5000191;28;20025;-76
2022/09/10 02:07:25;;;;;;;0.95;0.95;;;20.00;99.90;;;;;;5022015;28;20029;-75
2022/09/10 02:09:51;;;;;;;5.13;1.52;;;20.20;99.90;;;;;;5018156;28;20022;-74
2022/09/10 02:12:20;;;;;;;3.83;1.48;;;20.20;99.90;;;;;;5018742;28;20200;-73
2022/09/10 02:14:56;;;;;;;1.02;0.93;;;20.10;99.90;;;;;;5035434;28;20298;-75
2022/09/10 02:17:27;;;;;;;1.42;1.00;;;20.10;99.90;;;;;;5024007;28;20030;-75
2022/09/10 02:19:54;;;;;;;1.00;1.00;;;20.10;99.90;;;;;;5021266;28;20132;-76
2022/09/10 02:22:24;;;;;;;3.15;1.00;;;20.20;99.90;;;;;;5000609;28;20029;-75
2022/09/10 02:24:50;;;;;;;1.85;1.15;;;20.20;99.90;;;;;;5016215;28;20033;-75
2022/09/10 02:27:16;;;;;;;4.00;1.05;;;20.20;99.90;;;;;;5004118;28;20570;-75
2022/09/10 02:29:42;;;;;;;6.22;1.10;;;20.20;99.90;;;;;;5000899;28;20033;-74
2022/09/10 02:32:08;;;;;;;4.22;1.67;;;20.20;99.90;;;;;;5016603;28;20034;-74
2022/09/10 02:34:35;;;;;;;2.25;1.42;;;20.20;99.90;;;;;;5026003;28;20095;-74
2022/09/10 02:37:02;;;;;;;1.98;1.13;;;20.20;99.90;;;;;;5019972;28;20045;-74
2022/09/10 02:39:29;;;;;;;2.60;1.63;;;20.10;99.90;;;;;;5000851;28;20057;-75
2022/09/10 02:41:56;;;;;;;2.03;1.08;;;20.10;99.90;;;;;;5004910;28;20116;-74
2022/09/10 02:44:22;;;;;;;5.25;1.42;;;20.10;99.90;;;;;;5001468;28;20424;-75
2022/09/10 02:46:48;;;;;;;1.40;0.80;;;20.10;99.90;;;;;;5018829;28;20056;-73
2022/09/10 02:49:14;;;;;;;1.60;1.50;;;20.10;99.90;;;;;;5014759;28;20128;-75
2022/09/10 02:51:41;;;;;;;4.43;1.95;;;20.10;99.90;;;;;;5009631;28;20053;-75
2022/09/10 02:54:07;;;;;;;2.47;1.38;;;20.00;99.90;;;;;;4999647;28;20025;-75
2022/09/10 02:56:33;;;;;;;4.60;1.38;;;20.10;99.90;;;;;;5000503;28;20392;-75
2022/09/10 02:58:59;;;;;;;1.15;1.05;;;20.10;99.90;;;;;;4998748;28;20031;-75
2022/09/10 03:01:25;;;;;;;2.42;1.40;;;20.20;99.90;;;;;;5015048;28;20065;-74
2022/09/10 03:03:56;;;;;;;0.77;0.77;;;20.20;99.90;;;;;;5012826;28;20026;-74
2022/09/10 03:06:24;;;;;;;1.85;1.35;;;20.30;99.90;;;;;;4997649;28;20116;-75
2022/09/10 03:08:50;;;;;;;2.30;1.40;;;20.40;99.90;;;;;;4995084;28;20034;-74
2022/09/10 03:11:21;;;;;;;2.28;1.10;;;20.30;99.90;;;;;;5015076;28;20152;-73
2022/09/10 03:13:47;;;;;;;1.35;1.25;;;20.30;99.90;;;;;;5001096;28;20049;-74
2022/09/10 03:16:14;;;;;;;1.73;1.63;;;20.30;99.90;;;;;;5011317;28;20036;-74
2022/09/10 03:18:41;;;;;;;1.45;1.13;;;20.30;99.90;;;;;;4996306;28;20045;-74
2022/09/10 03:21:17;;;;;;;10.02;1.42;;;20.20;99.90;;;;;;5016214;28;20025;-75
2022/09/10 03:23:45;;;;;;;0.73;0.70;;;20.20;99.90;;;;;;4999100;28;20847;-74
2022/09/10 03:26:13;;;;;;;2.50;1.52;;;20.10;99.90;;;;;;5015225;28;20025;-73
2022/09/10 03:28:42;;;;;;;2.78;1.63;;;20.00;99.90;;;;;;5016418;28;20502;-75
2022/09/10 03:31:08;;;;;;;2.15;1.50;;;19.90;99.90;;;;;;4995226;28;20482;-72
2022/09/10 03:33:36;;;;;;;2.83;1.52;;;19.90;99.90;;;;;;4999615;28;20029;-74
2022/09/10 03:36:03;;;;;;;2.28;1.42;;;19.80;99.90;;;;;;5001519;28;20110;-73
2022/09/10 03:38:28;;;;;;;1.75;0.95;;;19.80;99.90;;;;;;5023199;28;20034;-74
2022/09/10 03:40:54;;;;;;;2.65;1.20;;;19.80;99.90;;;;;;5003861;28;20071;-74
2022/09/10 03:43:21;;;;;;;4.15;1.15;;;19.80;99.90;;;;;;5003670;28;20022;-73
2022/09/10 03:45:50;;;;;;;4.15;1.98;;;19.90;99.90;;;;;;5017429;28;20018;-74
2022/09/10 03:48:17;;;;;;;1.65;1.15;;;19.90;99.90;;;;;;5016722;28;20025;-73
2022/09/10 03:50:44;;;;;;;1.23;1.13;;;19.90;99.90;;;;;;5017252;28;20487;-72
2022/09/10 03:53:14;;;;;;;6.55;2.72;;;19.90;99.90;;;;;;5000571;28;20487;-73
2022/09/10 03:55:45;;;;;;;8.65;2.17;;;19.90;99.90;;;;;;5003461;28;20083;-73
2022/09/10 03:58:11;;;;;;;2.05;1.52;;;19.90;99.90;;;;;;5020357;28;20104;-74
2022/09/10 04:00:37;;;;;;;2.30;1.88;;;19.90;99.90;;;;;;5028296;28;20333;-74
2022/09/10 04:03:04;;;;;;;6.50;1.48;;;19.90;99.90;;;;;;5028673;28;20076;-74
2022/09/10 04:05:33;;;;;;;2.10;1.25;;;19.80;99.90;;;;;;5023136;28;20018;-75
2022/09/10 04:08:13;;;;;;;3.72;1.40;;;19.90;99.90;;;;;;5023078;28;20025;-73
2022/09/10 04:10:48;;;;;;;2.80;1.50;;;19.80;99.90;;;;;;5025150;28;20045;-74
2022/09/10 04:13:15;;;;;;;2.05;1.10;;;19.90;99.90;;;;;;5026401;28;20561;-73
2022/09/10 04:15:59;;;;;;;1.38;1.27;;;19.90;99.90;;;;;;5034645;28;20025;-75
2022/09/10 04:18:32;;;;;;;1.77;0.98;;;19.90;99.90;;;;;;5036385;28;20029;-71
2022/09/10 04:20:58;;;;;;;4.25;1.55;;;20.00;99.90;;;;;;5013763;28;20033;-74
2022/09/10 04:23:24;;;;;;;1.10;1.08;;;19.90;99.90;;;;;;5007684;28;20116;-73
2022/09/10 04:25:51;;;;;;;2.42;1.30;;;19.90;99.90;;;;;;5000670;28;20021;-74
2022/09/10 04:28:30;;;;;;;1.13;1.08;;;19.80;99.90;;;;;;5015043;28;20444;-74
2022/09/10 04:30:56;;;;;;;1.10;1.10;;;19.80;99.90;;;;;;5020375;28;20528;-75
2022/09/10 04:33:32;;;;;;;3.50;1.52;;;19.70;99.90;;;;;;5021998;28;20707;-73
2022/09/10 04:36:04;;;;;;;4.80;0.98;;;19.80;99.90;;;;;;5009294;28;20041;-76
2022/09/10 04:38:33;;;;;;;5.35;1.55;;;19.80;99.90;;;;;;5002551;28;20779;-75
2022/09/10 04:41:03;;;;;;;2.17;0.98;;;19.80;99.90;;;;;;5017603;28;20116;-74
2022/09/10 04:43:33;;;;;;;2.22;1.10;;;19.90;99.90;;;;;;5003978;28;20034;-73
2022/09/10 04:46:05;;;;;;;2.13;1.15;;;19.80;99.90;;;;;;5003060;28;20052;-73
2022/09/10 04:48:35;;;;;;;5.45;1.30;;;19.90;99.90;;;;;;5005964;28;20116;-75
2022/09/10 04:51:07;;;;;;;1.63;0.98;;;20.00;99.90;;;;;;5004156;28;20040;-74
2022/09/10 04:53:44;;;;;;;3.58;0.90;;;20.00;99.90;;;;;;5011516;28;20037;-73
2022/09/10 04:56:11;;;;;;;1.63;0.90;;;20.00;99.90;;;;;;5014878;28;20029;-74
2022/09/10 04:58:38;;;;;;;2.70;1.33;;;20.00;99.90;;;;;;5002405;28;20022;-74
2022/09/10 05:01:04;;;;;;;1.88;1.00;;;20.00;99.90;;;;;;5005374;28;20048;-74
2022/09/10 05:03:32;;;;;;;3.85;1.20;;;20.00;99.90;;;;;;5010394;28;20026;-74
2022/09/10 05:06:02;;;;;;;1.98;1.33;;;20.00;99.90;;;;;;5012258;28;20065;-74
2022/09/10 05:08:28;;;;;;;3.83;1.45;;;20.00;99.90;;;;;;5012762;28;20087;-75
2022/09/10 05:11:04;;;;;;;1.63;1.20;;;20.00;99.90;;;;;;5013893;28;20099;-74
2022/09/10 05:13:49;;;;;;;2.88;1.27;;;20.00;99.90;;;;;;5014365;28;20033;-73
2022/09/10 05:16:15;;;;;;;2.08;1.20;;;20.10;99.90;;;;;;5015002;28;20083;-75
2022/09/10 05:18:49;;;;;;;1.92;1.10;;;20.00;99.90;;;;;;5007673;28;20037;-74
2022/09/10 05:21:22;;;;;;;1.58;0.93;;;20.00;99.90;;;;;;5009207;28;20028;-74
2022/09/10 05:24:10;;;;;;;1.25;1.15;;;20.00;99.90;;;;;;5019079;28;20383;-74
2022/09/10 05:26:38;;;;;;;1.50;1.40;;;20.10;99.90;;;;;;5015719;28;20060;-74
2022/09/10 05:29:27;;;;;;;;;;;;;;;;;;;;;
2022/09/10 05:31:56;;;;;;;0.70;0.70;;;20.10;99.90;;;;;;5015556;28;20156;-77
2022/09/10 05:34:38;;;;;;;1.48;0.70;;;20.20;99.90;;;;;;5001788;28;20052;-74
2022/09/10 05:37:04;;;;;;;;;;;20.20;99.90;;;;;;5001455;28;20045;-74
2022/09/10 05:39:31;;;;;;;0.90;0.55;;;20.30;99.90;;;;;;5002708;28;19917;-73
2022/09/10 05:41:57;;;;;;;6.43;1.25;;;20.30;99.90;;;;;;5004558;28;20112;-72
2022/09/10 05:44:28;;;;;;;0.98;0.82;;;20.30;99.90;;;;;;5005719;28;20022;-75
2022/09/10 05:46:55;;;;;;;1.53;0.77;;;20.20;99.90;;;;;;5026970;28;20206;-74
2022/09/10 05:49:24;;;;;;;2.25;1.00;;;20.30;99.90;;;;;;5026738;28;20021;-73
2022/09/10 05:51:53;;;;;;;2.85;0.98;;;20.30;99.90;;;;;;5026827;28;20053;-74
2022/09/10 05:54:34;;;;;;;1.00;1.00;;;20.30;99.90;;;;;;5007394;28;20022;-75
2022/09/10 05:57:01;;;;;;;4.40;1.40;;;20.30;99.90;;;;;;5014236;28;20026;-72
2022/09/10 05:59:28;;;;;;;1.65;0.75;;;20.30;99.90;;;;;;5017553;28;20106;-71
2022/09/10 06:02:06;;;;;;;1.80;1.20;;;20.40;99.90;;;;;;5030960;28;20026;-72
2022/09/10 06:04:39;;;;;;;4.63;3.60;;;20.40;99.90;;;;;;5029877;28;20034;-73
2022/09/10 06:07:05;;;;;;;;;;;20.50;99.90;;;;;;4999709;28;20102;-67
2022/09/10 06:09:33;;;;;;;3.33;0.82;;;20.50;99.90;;;;;;5011999;28;19976;-69
2022/09/10 06:12:05;;;;;;;1.80;1.00;;;20.70;99.90;;;;;;5010140;28;20061;-70
2022/09/10 06:14:32;;;;;;;0.80;0.80;;;20.70;99.90;;;;;;5026754;28;20030;-69
2022/09/10 06:17:01;;;;;;;0.85;0.70;;;20.80;99.90;;;;;;5013653;28;20033;-67
2022/09/10 06:19:30;;;;;;;3.35;1.30;;;20.80;99.90;;;;;;5017302;28;20046;-70
2022/09/10 06:22:00;;;;;;;1.00;0.50;;;21.00;99.90;;;;;;5034314;28;20044;-72
2022/09/10 06:24:33;;;;;;;1.33;0.90;;;21.00;99.90;;;;;;5017833;28;20060;-71
2022/09/10 06:27:00;;;;;;;9.10;0.88;;;21.10;99.90;;;;;;5028388;28;20044;-68
2022/09/10 06:29:50;;;;;;;2.20;1.02;;;21.10;99.90;;;;;;5015883;28;20139;-70
2022/09/10 06:32:16;;;;;;;0.63;0.63;;;21.20;99.90;;;;;;5009164;28;20040;-68
2022/09/10 06:34:42;;;;;;;1.10;0.80;;;21.20;99.90;;;;;;5017651;28;20037;-68
2022/09/10 06:37:08;;;;;;;1.17;1.02;;;21.20;99.90;;;;;;5035019;28;20037;-70
2022/09/10 06:39:35;;;;;;;3.78;1.13;;;21.20;99.90;;;;;;5017049;28;20029;-69
2022/09/10 06:42:01;;;;;;;24.45;2.92;;;21.20;99.90;;;;;;5016237;28;20032;-68
2022/09/10 06:44:28;;;;;;;1.70;1.13;;;21.30;99.90;;;;;;5015505;28;20028;-68
2022/09/10 06:46:54;;;;;;;1.92;1.55;;;21.40;99.90;;;;;;5036773;28;20022;-68
2022/09/10 06:49:23;;;;;;;2.25;1.45;;;21.60;99.90;;;;;;5034495;28;20032;-69
2022/09/10 06:51:50;;;;;;;11.13;1.27;;;21.80;99.90;;;;;;5018740;28;20534;-69
2022/09/10 06:54:19;;;;;;;2.60;1.35;;;21.90;99.90;;;;;;5031715;28;20404;-68
2022/09/10 06:56:56;;;;;;;2.60;1.17;;;21.90;99.90;;;;;;5035808;28;20029;-69
2022/09/10 06:59:22;;;;;;;6.90;1.92;;;22.00;99.90;;;;;;5016913;28;20040;-70
2022/09/10 07:01:48;;;;;;;0.68;0.68;;;22.10;99.90;;;;;;5035228;28;20548;-69
2022/09/10 07:04:14;;;;;;;2.90;1.20;;;22.20;99.90;;;;;;5017891;28;20021;-69
2022/09/10 07:06:40;;;;;;;3.08;1.13;;;22.20;99.90;;;;;;5032510;28;20028;-68
2022/09/10 07:09:07;;;;;;;0.75;0.75;;;21.90;99.90;;;;;;5028385;28;20449;-71
2022/09/10 07:11:33;;;;;;;1.85;0.90;;;21.80;99.90;;;;;;5020637;28;20028;-69
2022/09/10 07:14:00;;;;;;;1.13;0.95;;;21.80;99.90;;;;;;5031073;28;20387;-68
2022/09/10 07:16:27;;;;;;;2.92;1.00;;;21.70;99.90;;;;;;5036715;28;20046;-68
2022/09/10 07:18:56;;;;;;;1.85;1.30;;;21.80;99.90;;;;;;5039560;28;20029;-68
2022/09/10 07:21:24;;;;;;;1.67;1.20;;;22.00;99.90;;;;;;5020776;28;20029;-69
2022/09/10 07:23:59;;;;;;;3.33;1.10;;;22.00;99.90;;;;;;5039742;28;20029;-69
2022/09/10 07:26:25;;;;;;;2.63;1.50;;;22.10;99.90;;;;;;5015275;28;20487;-68
2022/09/10 07:28:51;;;;;;;5.20;1.05;;;22.10;99.90;;;;;;5013268;28;20029;-69
2022/09/10 07:31:22;;;;;;;2.47;0.95;;;22.10;99.90;;;;;;5035836;28;20026;-69
2022/09/10 07:33:49;;;;;;;4.17;1.63;;;22.10;99.90;;;;;;5012824;28;20029;-67
2022/09/10 07:36:16;;;;;;;1.75;0.95;;;22.10;99.90;;;;;;5027802;28;20284;-68
2022/09/10 07:38:42;;;;;;;6.50;1.35;;;22.10;99.90;;;;;;5033230;28;20487;-70
2022/09/10 07:41:10;;;;;;;1.90;0.95;;;22.00;99.90;;;;;;5033355;28;20018;-68
2022/09/10 07:43:41;;;;;;;3.55;0.75;;;22.00;99.90;;;;;;5029491;28;20025;-69
2022/09/10 07:46:11;;;;;;;2.60;1.25;;;22.10;99.90;;;;;;5029920;28;20026;-67
2022/09/10 07:48:37;;;;;;;3.75;2.22;;;22.20;99.90;;;;;;5014716;28;20391;-67
2022/09/10 07:51:05;;;;;;;9.15;3.85;;;22.20;99.90;;;;;;5032731;28;20494;-68
2022/09/10 07:53:31;;;;;;;6.25;1.88;;;22.30;99.90;;;;;;5027922;28;20092;-68
2022/09/10 07:56:01;;;;;;;6.78;3.50;;;22.30;99.90;;;;;;5031547;28;20428;-67
2022/09/10 07:58:30;;;;;;;4.93;1.10;;;22.40;99.90;;;;;;5014798;28;20030;-69
2022/09/10 08:01:01;;;;;;;3.15;1.02;;;22.50;99.90;;;;;;5028760;28;20017;-68
2022/09/10 08:03:28;;;;;;;6.80;1.30;;;22.70;99.90;;;;;;5034138;28;20029;-68
2022/09/10 08:05:58;;;;;;;3.08;1.15;;;22.80;99.90;;;;;;5014366;28;20041;-68
2022/09/10 08:08:31;;;;;;;12.75;1.65;;;22.90;99.90;;;;;;4997926;28;20053;-69
2022/09/10 08:11:10;;;;;;;4.55;1.35;;;23.10;99.90;;;;;;5032662;28;20575;-69
2022/09/10 08:13:36;;;;;;;16.40;1.30;;;23.20;99.90;;;;;;5031059;28;20033;-68
2022/09/10 08:16:07;;;;;;;6.53;1.05;;;23.40;99.90;;;;;;5008702;28;20041;-68
2022/09/10 08:18:34;;;;;;;1.65;1.35;;;23.50;99.90;;;;;;5027166;28;20034;-68
2022/09/10 08:21:01;;;;;;;6.88;1.40;;;23.50;99.90;;;;;;5013433;28;20109;-70
2022/09/10 08:23:28;;;;;;;2.22;1.90;;;23.60;99.90;;;;;;5032147;28;20565;-70
2022/09/10 08:25:54;;;;;;;5.97;1.02;;;23.60;99.90;;;;;;5010915;28;20060;-68
2022/09/10 08:28:21;;;;;;;1.70;0.90;;;23.70;99.90;;;;;;5028666;28;20059;-67
2022/09/10 08:31:06;;;;;;;6.22;1.38;;;23.60;99.90;;;;;;5027990;28;20022;-69
2022/09/10 08:33:35;;;;;;;4.80;1.10;;;23.40;99.90;;;;;;5026313;28;20077;-68
2022/09/10 08:36:01;;;;;;;3.70;2.03;;;23.40;99.90;;;;;;5031455;28;20029;-68
2022/09/10 08:38:33;;;;;;;3.75;2.10;;;23.50;99.90;;;;;;5013701;28;20040;-70
2022/09/10 08:41:01;;;;;;;2.10;1.95;;;23.50;99.90;;;;;;5014843;28;20021;-68
2022/09/10 08:43:48;;;;;;;1.35;0.73;;;23.50;99.90;;;;;;5029330;28;20061;-68
2022/09/10 08:46:28;;;;;;;4.65;2.08;;;23.50;99.90;;;;;;5030332;28;20049;-69
2022/09/10 08:49:27;;;;;;;9.25;3.10;;;23.60;99.90;;;;;;5029583;28;20025;-68
2022/09/10 08:52:00;;;;;;;1.40;1.13;;;23.70;99.90;;;;;;5012550;28;20033;-68
2022/09/10 08:54:36;;;;;;;3.90;1.42;;;23.70;99.90;;;;;;5030993;28;20029;-69
2022/09/10 08:57:05;;;;;;;3.97;1.75;;;23.70;99.90;;;;;;5029516;28;20044;-67
2022/09/10 08:59:42;;;;;;;1.00;1.00;;;23.70;99.90;;;;;;5026210;28;20033;-70
2022/09/10 09:02:44;;;;;;;2.10;1.10;;;23.80;99.90;;;;;;5032449;28;20023;-68
2022/09/10 09:05:16;;;;;;;;;;;23.90;99.90;;;;;;5032195;28;20155;-69
2022/09/10 09:07:42;;;;;;;4.65;1.55;;;24.20;99.90;;;;;;5013814;28;19948;-68
2022/09/10 09:10:24;;;;;;;7.03;1.27;;;24.30;99.90;;;;;;5013511;28;20029;-67
2022/09/10 09:12:59;;;;;;;1.83;1.73;;;24.30;99.90;;;;;;5025881;28;20483;-69
2022/09/10 09:15:40;;;;;;;1.67;1.48;;;24.40;99.90;;;;;;5014047;28;20063;-68
2022/09/10 09:18:47;;;;;;;1.05;0.65;;;24.50;99.90;;;;;;5028751;28;20476;-69
2022/09/10 09:21:16;;;;;;;7.38;1.30;;;24.70;99.90;;;;;;5031825;28;20557;-67
2022/09/10 09:23:57;;;;;;;1.55;1.45;;;24.70;99.90;;;;;;5011217;28;20455;-68
2022/09/10 09:26:31;;;;;;;5.27;1.47;;;24.80;99.90;;;;;;5006269;28;20076;-68
2022/09/10 09:29:01;;;;;;;2.88;0.80;;;24.90;99.90;;;;;;5028939;28;20064;-70
2022/09/10 09:31:32;;;;;;;6.13;1.80;;;25.00;99.90;;;;;;5009414;28;20439;-69
2022/09/10 09:34:21;;;;;;;2.28;0.70;;;25.20;99.90;;;;;;5013048;28;20029;-69
2022/09/10 09:36:50;;;;;;;12.00;1.63;;;25.20;99.90;;;;;;5028592;28;20036;-69
2022/09/10 09:39:26;;;;;;;6.72;1.10;;;25.20;99.90;;;;;;5029942;28;20113;-71
2022/09/10 09:42:11;;;;;;;3.05;1.35;;;25.20;99.90;;;;;;5028706;28;20026;-69
2022/09/10 09:45:18;;;;;;;5.75;1.92;;;25.10;99.90;;;;;;5033183;28;20025;-69
2022/09/10 09:47:45;;;;;;;1.27;1.00;;;25.20;99.90;;;;;;5011900;28;20038;-68
2022/09/10 09:50:12;;;;;;;3.58;2.45;;;25.40;99.90;;;;;;5031565;28;20435;-69
2022/09/10 09:52:40;;;;;;;3.17;0.80;;;25.40;99.90;;;;;;5003013;28;20044;-70
2022/09/10 09:55:26;;;;;;;1.55;0.50;;;25.60;99.90;;;;;;5011851;28;20029;-67
2022/09/10 09:58:20;;;;;;;1.08;0.55;;;25.50;99.90;;;;;;5030103;28;20100;-67
2022/09/10 10:01:04;;;;;;;3.90;1.60;;;25.50;99.90;;;;;;5025662;28;20084;-69
2022/09/10 10:03:57;;;;;;;3.05;1.17;;;25.40;99.90;;;;;;5003294;28;20071;-69
2022/09/10 10:06:27;;;;;;;6.50;1.42;;;25.30;99.90;;;;;;5025287;28;20383;-67
2022/09/10 10:08:58;;;;;;;2.95;1.30;;;25.20;99.90;;;;;;5012529;28;20476;-68
2022/09/10 10:11:38;;;;;;;5.78;1.58;;;25.20;99.90;;;;;;5031221;28;20251;-69
2022/09/10 10:14:22;;;;;;;1.58;0.82;;;25.10;99.90;;;;;;5030160;28;20052;-68
2022/09/10 10:16:53;;;;;;;1.45;1.35;;;25.10;99.90;;;;;;5032078;28;20049;-68
2022/09/10 10:19:36;;;;;;;6.88;1.35;;;25.10;99.90;;;;;;5025680;28;20044;-69
2022/09/10 10:22:16;;;;;;;1.67;1.17;;;25.30;99.90;;;;;;5017037;28;20037;-70
2022/09/10 10:24:44;;;;;;;3.25;1.35;;;25.30;99.90;;;;;;5037843;28;20026;-70
2022/09/10 10:27:29;;;;;;;3.80;1.33;;;25.40;99.90;;;;;;5016806;28;20039;-69
2022/09/10 10:29:59;;;;;;;1.88;0.85;;;25.50;99.90;;;;;;5033836;28;20029;-68
2022/09/10 10:32:45;;;;;;;1.77;1.48;;;25.60;99.90;;;;;;5032562;28;20079;-68
2022/09/10 10:35:31;;;;;;;2.17;1.08;;;25.60;99.90;;;;;;5030345;28;20036;-68
2022/09/10 10:38:18;;;;;;;0.70;0.70;;;25.70;99.90;;;;;;5030139;28;20025;-68
2022/09/10 10:41:10;;;;;;;1.85;1.00;;;25.80;99.90;;;;;;5009865;28;20511;-70
2022/09/10 10:43:41;;;;;;;1.10;0.63;;;25.80;99.90;;;;;;5009924;28;20070;-70
2022/09/10 10:46:30;;;;;;;;;;;25.70;99.90;;;;;;5012357;28;20111;-68
2022/09/10 10:48:59;;;;;;;2.42;1.30;;;25.90;99.90;;;;;;4991066;28;19909;-68
2022/09/10 10:51:49;;;;;;;2.30;1.15;;;26.00;99.90;;;;;;5027328;28;20545;-71
2022/09/10 10:54:42;;;;;;;5.35;1.83;;;26.10;99.90;;;;;;5020521;28;20079;-69
2022/09/10 10:57:23;;;;;;;5.00;1.45;;;26.20;99.90;;;;;;5026997;28;20521;-71
2022/09/10 11:00:03;;;;;;;3.03;1.50;;;26.00;99.90;;;;;;5011624;28;20451;-69
2022/09/10 11:02:49;;;;;;;7.78;3.15;;;25.70;99.90;;;;;;5025464;28;20104;-69
2022/09/10 11:05:43;;;;;;;3.08;1.35;;;25.40;99.90;;;;;;5004318;28;20128;-68
2022/09/10 11:08:30;;;;;;;10.35;2.30;;;25.30;99.90;;;;;;5028313;28;20064;-68
2022/09/10 11:11:15;;;;;;;9.10;2.00;;;25.40;99.90;;;;;;5004424;28;20087;-68
2022/09/10 11:13:43;;;;;;;12.43;2.60;;;25.60;99.90;;;;;;5027549;28;20101;-69
2022/09/10 11:16:40;;;;;;;4.47;1.70;;;25.60;99.90;;;;;;5028524;28;21333;-70
2022/09/10 11:19:20;;;;;;;5.57;2.17;;;25.90;99.90;;;;;;5015339;28;20048;-69
2022/09/10 11:21:53;;;;;;;6.15;2.28;;;26.20;99.90;;;;;;5004594;28;20038;-67
2022/09/10 11:24:24;;;;;;;2.00;1.50;;;26.30;99.90;;;;;;5008955;28;20041;-68
2022/09/10 11:27:06;;;;;;;4.68;2.13;;;26.60;99.90;;;;;;5005804;28;20033;-68
2022/09/10 11:30:02;;;;;;;7.85;2.05;;;26.80;99.90;;;;;;5004116;28;20038;-68
2022/09/10 11:32:39;;;;;;;7.85;2.53;;;26.80;99.90;;;;;;5022162;28;20083;-67
2022/09/10 11:35:30;;;;;;;6.85;1.75;;;27.00;99.90;;;;;;5021444;28;20029;-69
2022/09/10 11:38:02;;;;;;;4.72;2.25;;;27.00;99.90;;;;;;5010530;28;20032;-69
2022/09/10 11:40:45;;;;;;;3.45;1.60;;;27.10;99.90;;;;;;5026710;28;20036;-68
2022/09/10 11:43:26;;;;;;;6.57;2.00;;;27.30;99.90;;;;;;5028695;28;20013;-69
2022/09/10 11:45:56;;;;;;;3.67;1.48;;;27.50;99.90;;;;;;5007653;28;20030;-68
2022/09/10 11:48:33;;;;;;;2.35;1.50;;;27.30;99.90;;;;;;5027301;28;20057;-69
2022/09/10 11:51:32;;;;;;;3.63;1.92;;;27.10;99.90;;;;;;5029773;28;20025;-69
2022/09/10 11:54:00;;;;;;;7.43;5.55;;;27.00;99.90;;;;;;5003967;28;20129;-69
2022/09/10 11:56:45;;;;;;;5.13;1.65;;;27.00;99.90;;;;;;5014080;28;20531;-68
2022/09/10 11:59:58;;;;;;;1.80;0.80;;;26.90;99.90;;;;;;5014165;28;20542;-69
2022/09/10 12:02:24;;;;;;;3.28;1.05;;;27.00;99.90;;;;;;5016513;28;20063;-70
2022/09/10 12:05:11;;;;;;;5.13;0.80;;;27.00;99.90;;;;;;5013412;28;20472;-67
2022/09/10 12:07:52;;;;;;;4.32;1.23;;;26.90;99.90;;;;;;5027789;28;20037;-69
2022/09/10 12:10:18;;;;;;;3.73;1.03;;;26.70;99.90;;;;;;5010640;28;20036;-69
2022/09/10 12:12:48;;;;;;;4.13;1.13;;;26.50;99.90;;;;;;5031403;28;20453;-68
2022/09/10 12:15:23;;;;;;;1.42;0.85;;;26.40;99.90;;;;;;5035997;28;20085;-68
2022/09/10 12:18:03;;;;;;;1.40;1.10;;;26.40;99.90;;;;;;5017691;28;20032;-69
2022/09/10 12:20:49;;;;;;;1.33;1.08;;;26.50;99.90;;;;;;5013857;28;20045;-68
2022/09/10 12:23:30;;;;;;;3.65;1.20;;;26.50;99.90;;;;;;5016762;28;20025;-69
2022/09/10 12:26:07;;;;;;;6.13;1.37;;;26.60;99.90;;;;;;5036793;28;20448;-69
2022/09/10 12:28:42;;;;;;;4.93;4.18;;;26.70;99.90;;;;;;5038818;28;20029;-68
2022/09/10 12:31:16;;;;;;;2.03;1.42;;;26.60;99.90;;;;;;5038326;28;20089;-68
2022/09/10 12:33:44;;;;;;;1.10;0.93;;;26.60;99.90;;;;;;5035032;28;20025;-69
2022/09/10 12:36:27;;;;;;;3.72;1.63;;;26.60;99.90;;;;;;5031616;28;20048;-68
2022/09/10 12:39:25;;;;;;;4.25;1.38;;;26.60;99.90;;;;;;5025651;28;20030;-68
2022/09/10 12:41:51;;;;;;;1.35;1.00;;;26.50;99.90;;;;;;5033258;28;20028;-69
2022/09/10 12:44:47;;;;;;;6.35;1.73;;;26.50;99.90;;;;;;5013851;28;20031;-69
2022/09/10 12:47:16;;;;;;;5.55;1.27;;;26.50;99.90;;;;;;5022896;28;20033;-69
2022/09/10 12:49:54;;;;;;;2.65;1.55;;;26.60;99.90;;;;;;5031530;28;20033;-68
2022/09/10 12:52:35;;;;;;;6.13;1.40;;;26.60;99.90;;;;;;5021977;28;20033;-67
2022/09/10 12:55:30;;;;;;;5.10;1.95;;;26.70;99.90;;;;;;5030674;28;20105;-68
2022/09/10 12:58:24;;;;;;;3.97;1.65;;;26.80;99.90;;;;;;5018677;28;20060;-68
2022/09/10 13:00:53;;;;;;;3.40;1.30;;;26.90;99.90;;;;;;5026064;28;20056;-69
2022/09/10 13:03:22;;;;;;;2.22;0.90;;;26.90;99.90;;;;;;5013899;28;20021;-69
2022/09/10 13:05:53;;;;;;;3.63;1.00;;;26.80;99.90;;;;;;5032629;28;20025;-68
2022/09/10 13:08:30;;;;;;;10.07;1.58;;;26.80;99.90;;;;;;5028772;28;20065;-69
2022/09/10 13:10:58;;;;;;;3.38;1.92;;;26.70;99.90;;;;;;5032336;28;20025;-67
2022/09/10 13:13:51;;;;;;;5.45;1.10;;;27.00;99.90;;;;;;5014700;28;20025;-69
2022/09/10 13:16:39;;;;;;;6.03;1.23;;;26.90;99.90;;;;;;5012622;28;20042;-69
2022/09/10 13:19:18;;;;;;;6.20;1.77;;;27.00;99.90;;;;;;5013422;28;20026;-71
2022/09/10 13:21:44;;;;;;;2.60;1.27;;;27.10;99.90;;;;;;5012641;28;20068;-68